createdAt,value
2018-07-26T00:02:37.716Z,23.30
2018-07-26T00:06:02.127Z,23.30
2018-07-26T00:09:26.554Z,23.10
2018-07-26T00:12:51.000Z,23.10
2018-07-26T00:19:39.562Z,22.90
2018-07-26T00:23:03.990Z,22.90
2018-07-26T00:26:28.414Z,22.90
2018-07-26T00:29:52.906Z,22.80
2018-07-26T00:33:17.353Z,22.70
2018-07-26T00:36:41.847Z,22.60
2018-07-26T00:40:06.898Z,22.60
2018-07-26T00:43:31.316Z,22.60
2018-07-26T00:46:55.836Z,22.50
2018-07-26T00:50:20.366Z,22.40
2018-07-26T00:53:44.851Z,22.40
2018-07-26T00:57:09.317Z,22.40
2018-07-26T01:00:33.823Z,22.30
2018-07-26T01:03:58.382Z,22.20
2018-07-26T01:07:22.870Z,22.10
2018-07-26T01:10:47.394Z,22.00
2018-07-26T01:14:11.924Z,22.00
2018-07-26T01:17:36.462Z,21.90
2018-07-26T01:21:01.042Z,21.80
2018-07-26T01:24:25.611Z,21.70
2018-07-26T01:27:50.227Z,21.60
2018-07-26T01:31:14.813Z,21.60
2018-07-26T01:34:39.399Z,21.60
2018-07-26T01:38:03.979Z,21.50
2018-07-26T01:41:28.609Z,21.50
2018-07-26T01:44:53.200Z,21.40
2018-07-26T01:48:17.796Z,21.40
2018-07-26T01:51:42.355Z,21.40
2018-07-26T01:55:06.967Z,21.40
2018-07-26T01:58:31.561Z,21.30
2018-07-26T02:01:56.163Z,21.30
2018-07-26T02:05:20.682Z,21.20
2018-07-26T02:08:45.258Z,21.20
2018-07-26T02:12:09.921Z,21.10
2018-07-26T02:15:34.579Z,21.10
2018-07-26T02:18:59.113Z,21.10
2018-07-26T02:22:23.591Z,21.00
2018-07-26T02:25:48.194Z,21.00
2018-07-26T02:29:12.726Z,21.00
2018-07-26T02:32:37.207Z,20.90
2018-07-26T02:36:01.692Z,20.90
2018-07-26T02:39:26.259Z,20.90
2018-07-26T02:42:50.772Z,20.90
2018-07-26T02:46:15.283Z,20.90
2018-07-26T02:49:39.789Z,20.80
2018-07-26T02:53:04.388Z,20.80
2018-07-26T02:56:28.912Z,20.80
2018-07-26T02:59:53.424Z,20.70
2018-07-26T03:03:18.077Z,20.70
2018-07-26T03:06:42.678Z,20.70
2018-07-26T03:10:07.623Z,20.60
2018-07-26T03:13:32.187Z,20.60
2018-07-26T03:16:56.773Z,20.60
2018-07-26T03:20:21.357Z,20.60
2018-07-26T03:23:45.911Z,20.60
2018-07-26T03:30:34.920Z,20.60
2018-07-26T03:33:59.482Z,20.60
2018-07-26T03:37:24.029Z,20.60
2018-07-26T03:40:48.708Z,20.50
2018-07-26T03:44:13.591Z,20.50
2018-07-26T03:47:38.173Z,20.40
2018-07-26T03:51:02.756Z,20.40
2018-07-26T03:54:27.259Z,20.40
2018-07-26T03:57:52.207Z,20.40
2018-07-26T04:01:16.751Z,20.40
2018-07-26T04:04:41.296Z,20.40
2018-07-26T04:08:05.950Z,20.40
2018-07-26T04:11:30.497Z,20.40
2018-07-26T04:14:55.090Z,20.30
2018-07-26T04:18:19.571Z,20.30
2018-07-26T04:21:44.099Z,20.30
2018-07-26T04:25:08.631Z,20.40
2018-07-26T04:28:33.215Z,20.40
2018-07-26T04:31:57.756Z,20.40
2018-07-26T04:35:22.242Z,20.40
2018-07-26T04:38:46.775Z,20.50
2018-07-26T04:42:11.281Z,20.50
2018-07-26T04:45:35.811Z,20.60
2018-07-26T04:49:00.385Z,20.60
2018-07-26T04:52:24.767Z,20.70
2018-07-26T04:55:49.268Z,20.70
2018-07-26T04:59:13.798Z,20.80
2018-07-26T05:02:38.263Z,20.90
2018-07-26T05:06:02.870Z,20.90
2018-07-26T05:09:27.402Z,21.00
2018-07-26T05:12:51.994Z,21.10
2018-07-26T05:16:16.430Z,21.20
2018-07-26T05:19:40.898Z,21.30
2018-07-26T05:23:05.487Z,21.30
2018-07-26T05:26:29.990Z,21.50
2018-07-26T05:29:54.512Z,21.50
2018-07-26T05:33:18.950Z,21.70
2018-07-26T05:36:43.459Z,21.80
2018-07-26T05:40:07.917Z,21.90
2018-07-26T05:43:32.379Z,22.00
2018-07-26T05:46:56.861Z,22.20
2018-07-26T05:50:21.403Z,22.30
2018-07-26T05:53:46.015Z,22.40
2018-07-26T05:57:10.603Z,22.50
2018-07-26T06:00:35.199Z,22.60
2018-07-26T06:03:59.763Z,22.80
2018-07-26T06:07:24.339Z,22.90
2018-07-26T06:10:48.954Z,23.00
2018-07-26T06:14:13.523Z,23.20
2018-07-26T06:17:38.099Z,23.30
2018-07-26T06:21:02.644Z,23.50
2018-07-26T06:24:27.280Z,23.70
2018-07-26T06:27:51.807Z,23.90
2018-07-26T06:31:16.231Z,24.10
2018-07-26T06:34:40.802Z,24.30
2018-07-26T06:38:05.303Z,24.50
2018-07-26T06:41:29.959Z,24.70
2018-07-26T06:44:54.519Z,24.80
2018-07-26T06:48:19.096Z,24.90
2018-07-26T06:51:43.561Z,25.00
2018-07-26T06:55:08.062Z,25.20
2018-07-26T06:58:32.537Z,25.40
2018-07-26T07:01:57.007Z,25.60
2018-07-26T07:05:21.512Z,25.80
2018-07-26T07:08:46.035Z,25.90
2018-07-26T07:12:10.725Z,26.10
2018-07-26T07:15:35.262Z,26.20
2018-07-26T07:18:59.698Z,26.40
2018-07-26T07:22:24.271Z,26.60
2018-07-26T07:25:48.727Z,26.80
2018-07-26T07:29:13.192Z,27.20
2018-07-26T07:32:37.708Z,27.40
2018-07-26T07:36:02.102Z,27.80
2018-07-26T07:39:26.558Z,28.00
2018-07-26T07:42:50.972Z,28.20
2018-07-26T07:46:15.441Z,28.20
2018-07-26T07:49:39.854Z,28.10
2018-07-26T07:53:04.278Z,28.10
2018-07-26T07:56:28.692Z,28.00
2018-07-26T07:59:53.240Z,27.90
2018-07-26T08:03:17.589Z,27.70
2018-07-26T08:06:42.073Z,27.50
2018-07-26T08:10:08.977Z,27.40
2018-07-26T08:13:33.417Z,27.30
2018-07-26T08:16:57.914Z,27.20
2018-07-26T08:20:22.399Z,27.10
2018-07-26T08:23:46.907Z,27.00
2018-07-26T08:27:11.483Z,27.00
2018-07-26T08:30:35.978Z,26.90
2018-07-26T08:37:24.611Z,27.00
2018-07-26T08:40:49.037Z,27.10
2018-07-26T08:44:13.502Z,27.40
2018-07-26T08:47:37.921Z,27.80
2018-07-26T08:51:02.377Z,28.10
2018-07-26T08:54:26.839Z,28.40
2018-07-26T08:57:51.278Z,28.70
2018-07-26T09:01:15.704Z,29.00
2018-07-26T09:04:40.127Z,29.40
2018-07-26T09:08:04.657Z,29.80
2018-07-26T09:11:29.080Z,30.10
2018-07-26T09:14:54.170Z,30.40
2018-07-26T09:18:19.317Z,30.50
2018-07-26T09:21:43.771Z,30.70
2018-07-26T09:25:08.206Z,31.20
2018-07-26T09:28:32.788Z,31.40
2018-07-26T09:31:57.376Z,31.60
2018-07-26T09:35:21.907Z,31.80
2018-07-26T09:38:46.520Z,32.00
2018-07-26T09:42:11.066Z,32.20
2018-07-26T09:45:35.541Z,32.30
2018-07-26T09:49:00.070Z,32.50
2018-07-26T09:52:24.489Z,32.50
2018-07-26T09:55:49.425Z,32.70
2018-07-26T09:59:13.887Z,33.00
2018-07-26T10:02:38.322Z,33.40
2018-07-26T10:06:02.751Z,33.80
2018-07-26T10:09:27.219Z,34.20
2018-07-26T10:12:51.659Z,34.40
2018-07-26T10:16:16.100Z,34.70
2018-07-26T10:19:40.541Z,35.10
2018-07-26T10:23:05.052Z,35.20
2018-07-26T10:26:29.478Z,35.30
2018-07-26T10:29:53.913Z,36.00
2018-07-26T10:33:18.350Z,36.60
2018-07-26T10:36:42.807Z,37.20
2018-07-26T10:40:07.218Z,37.40
2018-07-26T10:43:31.703Z,37.90
2018-07-26T10:46:56.242Z,38.60
2018-07-26T10:50:20.709Z,39.20
2018-07-26T10:53:45.240Z,39.70
2018-07-26T10:57:09.906Z,40.30
2018-07-26T11:00:34.447Z,40.70
2018-07-26T11:03:59.034Z,40.80
2018-07-26T11:07:23.599Z,40.90
2018-07-26T11:10:48.187Z,41.00
2018-07-26T11:14:12.683Z,41.20
2018-07-26T11:17:37.146Z,41.70
2018-07-26T11:21:01.737Z,42.00
2018-07-26T11:24:26.354Z,42.10
2018-07-26T11:27:50.887Z,42.50
2018-07-26T11:31:15.412Z,42.30
2018-07-26T11:34:40.003Z,42.30
2018-07-26T11:38:04.532Z,43.00
2018-07-26T11:41:29.103Z,42.80
2018-07-26T11:44:53.677Z,42.50
2018-07-26T11:48:18.258Z,43.10
2018-07-26T11:51:42.860Z,43.70
2018-07-26T11:55:07.443Z,43.80
2018-07-26T11:58:31.999Z,43.70
2018-07-26T12:01:56.580Z,43.70
2018-07-26T12:05:21.214Z,44.20
2018-07-26T12:08:45.806Z,44.60
2018-07-26T12:12:11.100Z,45.40
2018-07-26T12:18:59.734Z,45.70
2018-07-26T12:22:24.289Z,45.90
2018-07-26T12:25:48.956Z,46.60
2018-07-26T12:29:14.691Z,47.10
2018-07-26T12:32:39.470Z,47.30
2018-07-26T12:36:04.006Z,47.30
2018-07-26T12:42:58.911Z,47.00
2018-07-26T12:46:23.410Z,46.90
2018-07-26T12:49:47.886Z,45.90
2018-07-26T12:53:12.497Z,44.60
2018-07-26T12:56:36.993Z,43.10
2018-07-26T13:00:01.536Z,42.00
2018-07-26T13:03:26.014Z,41.90
2018-07-26T13:10:14.783Z,40.40
2018-07-26T13:13:39.407Z,39.90
2018-07-26T13:17:03.990Z,40.20
2018-07-26T13:20:28.632Z,40.60
2018-07-26T13:23:53.140Z,41.50
2018-07-26T13:27:17.739Z,43.00
2018-07-26T13:30:42.233Z,45.10
2018-07-26T13:34:07.114Z,45.70
2018-07-26T13:37:31.654Z,45.30
2018-07-26T13:40:56.185Z,46.10
2018-07-26T13:44:20.734Z,46.60
2018-07-26T13:47:45.306Z,47.10
2018-07-26T13:51:09.862Z,48.60
2018-07-26T13:54:34.392Z,49.00
2018-07-26T13:57:59.153Z,49.10
2018-07-26T14:01:23.685Z,49.30
2018-07-26T14:04:48.242Z,49.10
2018-07-26T14:08:12.781Z,49.00
2018-07-26T14:11:37.418Z,49.60
2018-07-26T14:15:01.994Z,50.20
2018-07-26T14:18:26.557Z,50.60
2018-07-26T14:21:51.189Z,50.60
2018-07-26T14:25:15.753Z,50.10
2018-07-26T14:28:40.487Z,50.80
2018-07-26T14:32:05.089Z,51.40
2018-07-26T14:35:29.685Z,51.60
2018-07-26T14:38:54.161Z,51.10
2018-07-26T14:42:18.729Z,49.30
2018-07-26T14:45:43.320Z,48.70
2018-07-26T14:49:07.915Z,49.20
2018-07-26T14:52:32.449Z,51.10
2018-07-26T14:55:57.017Z,50.20
2018-07-26T14:59:21.612Z,47.70
2018-07-26T15:02:46.156Z,45.70
2018-07-26T15:06:10.703Z,44.20
2018-07-26T15:09:35.310Z,44.40
2018-07-26T15:13:00.067Z,44.00
2018-07-26T15:16:24.600Z,44.80
2018-07-26T15:19:49.145Z,45.90
2018-07-26T15:23:13.740Z,47.30
2018-07-26T15:26:38.415Z,47.20
2018-07-26T15:30:03.006Z,47.90
2018-07-26T15:33:27.576Z,50.00
2018-07-26T15:36:52.110Z,50.90
2018-07-26T15:40:16.650Z,49.70
2018-07-26T15:43:41.152Z,47.20
2018-07-26T15:47:05.806Z,45.10
2018-07-26T15:50:30.275Z,43.90
2018-07-26T15:53:54.766Z,44.00
2018-07-26T15:57:19.335Z,43.30
2018-07-26T16:00:43.826Z,42.60
2018-07-26T16:04:08.384Z,42.30
2018-07-26T16:07:32.884Z,43.00
2018-07-26T16:10:57.520Z,43.80
2018-07-26T16:14:22.003Z,43.00
2018-07-26T16:17:46.583Z,42.10
2018-07-26T16:21:11.042Z,42.00
2018-07-26T16:24:35.502Z,43.50
2018-07-26T16:27:59.971Z,45.60
2018-07-26T16:31:24.518Z,45.10
2018-07-26T16:34:49.038Z,42.60
2018-07-26T16:38:13.629Z,40.50
2018-07-26T16:41:38.179Z,39.30
2018-07-26T16:45:02.912Z,38.30
2018-07-26T16:48:27.406Z,37.90
2018-07-26T16:51:52.004Z,37.70
2018-07-26T16:55:16.600Z,37.70
2018-07-26T16:58:41.255Z,38.00
2018-07-26T17:02:05.833Z,37.60
2018-07-26T17:05:30.346Z,37.40
2018-07-26T17:08:54.805Z,37.10
2018-07-26T17:12:19.267Z,36.90
2018-07-26T17:15:43.758Z,36.50
2018-07-26T17:19:08.414Z,35.90
2018-07-26T17:22:32.987Z,35.60
2018-07-26T17:25:57.509Z,35.40
2018-07-26T17:29:22.020Z,35.20
2018-07-26T17:32:46.583Z,35.10
2018-07-26T17:36:11.087Z,34.70
2018-07-26T17:39:35.556Z,34.50
2018-07-26T17:43:00.022Z,34.40
2018-07-26T17:46:24.499Z,34.10
2018-07-26T17:49:49.074Z,33.90
2018-07-26T17:53:13.574Z,33.70
2018-07-26T17:56:38.215Z,33.50
2018-07-26T18:00:02.904Z,33.30
2018-07-26T18:03:27.371Z,33.10
2018-07-26T18:06:51.962Z,33.00
2018-07-26T18:10:16.649Z,32.70
2018-07-26T18:13:41.130Z,32.60
2018-07-26T18:20:30.350Z,32.70
2018-07-26T18:23:54.885Z,32.70
2018-07-26T18:27:19.453Z,32.70
2018-07-26T18:30:44.058Z,32.60
2018-07-26T18:34:08.768Z,32.60
2018-07-26T18:37:33.306Z,32.60
2018-07-26T18:40:57.937Z,32.50
2018-07-26T18:44:22.566Z,32.50
2018-07-26T18:47:47.159Z,32.40
2018-07-26T18:51:11.963Z,32.30
2018-07-26T18:54:36.766Z,32.30
2018-07-26T18:58:01.363Z,32.10
2018-07-26T19:01:26.052Z,31.90
2018-07-26T19:08:14.930Z,31.50
2018-07-26T19:11:39.905Z,31.20
2018-07-26T19:15:05.726Z,31.10
2018-07-26T19:18:30.509Z,31.00
2018-07-26T19:21:55.654Z,30.80
2018-07-26T19:25:20.658Z,30.70
2018-07-26T19:28:45.226Z,30.50
2018-07-26T19:32:09.978Z,30.30
2018-07-26T19:35:34.960Z,30.20
2018-07-26T19:38:59.589Z,30.00
2018-07-26T19:42:24.423Z,29.90
2018-07-26T19:45:49.283Z,29.80
2018-07-26T19:49:14.267Z,29.70
2018-07-26T19:52:39.016Z,29.60
2018-07-26T19:56:04.217Z,29.50
2018-07-26T19:59:28.914Z,29.50
2018-07-26T20:02:53.542Z,29.40
2018-07-26T20:06:18.123Z,29.30
2018-07-26T20:09:42.760Z,29.30
2018-07-26T20:13:07.443Z,29.20
2018-07-26T20:16:32.857Z,29.20
2018-07-26T20:19:57.564Z,29.00
2018-07-26T20:23:22.206Z,28.90
2018-07-26T20:26:47.013Z,28.80
2018-07-26T20:30:12.205Z,28.60
2018-07-26T20:33:37.066Z,28.50
2018-07-26T20:37:01.764Z,28.50
2018-07-26T20:40:26.711Z,28.50
2018-07-26T20:43:51.354Z,28.50
2018-07-26T20:47:16.007Z,28.50
2018-07-26T20:50:40.926Z,28.50
2018-07-26T20:54:05.549Z,28.50
2018-07-26T20:57:30.106Z,28.40
2018-07-26T21:00:54.710Z,28.40
2018-07-26T21:04:19.310Z,28.30
2018-07-26T21:07:43.898Z,28.30
2018-07-26T21:11:08.528Z,28.20
2018-07-26T21:14:33.085Z,28.20
2018-07-26T21:17:57.660Z,28.20
2018-07-26T21:21:22.310Z,28.00
2018-07-26T21:24:46.855Z,28.00
2018-07-26T21:28:11.376Z,27.90
2018-07-26T21:31:35.983Z,27.90
2018-07-26T21:35:00.677Z,27.80
2018-07-26T21:38:25.222Z,27.70
2018-07-26T21:41:49.778Z,27.70
2018-07-26T21:45:14.378Z,27.60
2018-07-26T21:48:38.970Z,27.60
2018-07-26T21:52:03.569Z,27.60
2018-07-26T21:55:28.139Z,27.60
2018-07-26T21:58:52.693Z,27.60
2018-07-26T22:05:41.522Z,27.60
2018-07-26T22:09:10.658Z,27.60
2018-07-26T22:12:35.128Z,27.60
2018-07-26T22:15:59.625Z,27.60
2018-07-26T22:19:24.094Z,27.60
2018-07-26T22:22:48.547Z,27.50
2018-07-26T22:26:12.974Z,27.50
2018-07-26T22:29:37.365Z,27.50
2018-07-26T22:33:01.800Z,27.50
2018-07-26T22:36:26.268Z,27.50
2018-07-26T22:39:50.726Z,27.50
2018-07-26T22:43:15.242Z,27.50
2018-07-26T22:46:39.764Z,27.40
2018-07-26T22:50:04.429Z,27.40
2018-07-26T22:53:29.015Z,27.30
2018-07-26T22:56:53.537Z,27.30
2018-07-26T23:00:18.088Z,27.20
2018-07-26T23:03:42.693Z,27.20
2018-07-26T23:07:07.591Z,27.10
2018-07-26T23:10:32.091Z,27.00
2018-07-26T23:13:56.691Z,27.00
2018-07-26T23:17:21.227Z,26.90
2018-07-26T23:20:45.765Z,26.80
2018-07-26T23:24:10.486Z,26.80
2018-07-26T23:27:35.383Z,26.70
2018-07-26T23:30:59.794Z,26.50
2018-07-26T23:34:24.280Z,26.50
2018-07-26T23:37:48.840Z,26.30
2018-07-26T23:41:13.394Z,26.20
2018-07-26T23:48:02.174Z,26.00
2018-07-26T23:51:26.633Z,25.90
2018-07-26T23:54:51.238Z,25.70
2018-07-26T23:58:15.830Z,25.60
